createdAt,value
2023-01-26T00:00:13.414Z,100.00
2023-01-26T00:01:18.507Z,100.00
2023-01-26T00:02:22.097Z,100.00
2023-01-26T00:03:24.585Z,100.00
2023-01-26T00:04:28.144Z,100.00
2023-01-26T00:05:31.532Z,100.00
2023-01-26T00:06:36.941Z,100.00
2023-01-26T00:07:44.959Z,100.00
2023-01-26T00:08:48.954Z,100.00
2023-01-26T00:09:52.367Z,100.00
2023-01-26T00:10:58.560Z,100.00
2023-01-26T00:12:00.690Z,100.00
2023-01-26T00:13:04.229Z,100.00
2023-01-26T00:14:10.321Z,100.00
2023-01-26T00:15:13.629Z,100.00
2023-01-26T00:16:18.147Z,100.00
2023-01-26T00:17:26.599Z,100.00
2023-01-26T00:18:30.836Z,100.00
2023-01-26T00:19:34.147Z,100.00
2023-01-26T00:20:38.251Z,100.00
2023-01-26T00:21:41.638Z,100.00
2023-01-26T00:22:44.437Z,100.00
2023-01-26T00:23:49.763Z,100.00
2023-01-26T00:24:53.049Z,100.00
2023-01-26T00:25:58.908Z,100.00
2023-01-26T00:27:02.431Z,100.00
2023-01-26T00:28:04.788Z,100.00
2023-01-26T00:29:08.392Z,100.00
2023-01-26T00:30:13.915Z,100.00
2023-01-26T00:31:19.002Z,100.00
2023-01-26T00:32:23.086Z,100.00
2023-01-26T00:33:26.131Z,100.00
2023-01-26T00:34:31.025Z,100.00
2023-01-26T00:35:34.647Z,100.00
2023-01-26T00:36:38.983Z,100.00
2023-01-26T00:37:42.706Z,100.00
2023-01-26T00:38:47.329Z,100.00
2023-01-26T00:39:50.434Z,100.00
2023-01-26T00:40:54.092Z,100.00
2023-01-26T00:42:13.420Z,100.00
2023-01-26T00:43:19.349Z,100.00
2023-01-26T00:44:23.671Z,100.00
2023-01-26T00:45:28.647Z,100.00
2023-01-26T00:46:32.093Z,100.00
2023-01-26T00:47:37.012Z,100.00
2023-01-26T00:48:41.460Z,100.00
2023-01-26T00:49:46.633Z,100.00
2023-01-26T00:50:53.085Z,100.00
2023-01-26T00:51:56.568Z,100.00
2023-01-26T00:53:00.376Z,100.00
2023-01-26T00:54:03.776Z,100.00
2023-01-26T00:55:06.561Z,100.00
2023-01-26T00:56:09.752Z,100.00
2023-01-26T00:57:12.571Z,100.00
2023-01-26T00:58:15.813Z,100.00
2023-01-26T00:59:18.191Z,100.00
2023-01-26T01:00:22.599Z,100.00
2023-01-26T01:01:26.881Z,100.00
2023-01-26T01:02:31.222Z,100.00
2023-01-26T01:03:34.705Z,100.00
2023-01-26T01:04:40.822Z,100.00
2023-01-26T01:05:47.031Z,100.00
2023-01-26T01:06:50.548Z,100.00
2023-01-26T01:07:53.327Z,100.00
2023-01-26T01:08:56.501Z,100.00
2023-01-26T01:10:02.866Z,100.00
2023-01-26T01:11:10.099Z,100.00
2023-01-26T01:12:14.338Z,100.00
2023-01-26T01:13:22.596Z,100.00
2023-01-26T01:14:25.833Z,100.00
2023-01-26T01:15:28.510Z,100.00
2023-01-26T01:16:31.806Z,100.00
2023-01-26T01:17:36.773Z,100.00
2023-01-26T01:18:43.025Z,100.00
2023-01-26T01:19:46.816Z,100.00
2023-01-26T01:20:49.929Z,100.00
2023-01-26T01:21:54.152Z,100.00
2023-01-26T01:23:02.336Z,100.00
2023-01-26T01:24:06.197Z,100.00
2023-01-26T01:25:11.298Z,100.00
2023-01-26T01:26:17.168Z,100.00
2023-01-26T01:27:21.691Z,100.00
2023-01-26T01:28:26.477Z,100.00
2023-01-26T01:29:30.744Z,100.00
2023-01-26T01:30:39.049Z,100.00
2023-01-26T01:31:43.815Z,100.00
2023-01-26T01:32:49.551Z,100.00
2023-01-26T01:33:55.806Z,100.00
2023-01-26T01:35:01.260Z,100.00
2023-01-26T01:36:06.648Z,100.00
2023-01-26T01:37:09.436Z,100.00
2023-01-26T01:38:12.756Z,100.00
2023-01-26T01:40:18.377Z,100.00
2023-01-26T01:41:22.491Z,100.00
2023-01-26T01:42:26.315Z,100.00
2023-01-26T01:43:29.604Z,100.00
2023-01-26T01:44:43.212Z,100.00
2023-01-26T01:45:48.643Z,100.00
2023-01-26T01:47:05.197Z,100.00
2023-01-26T01:48:10.900Z,100.00
2023-01-26T01:49:16.084Z,100.00
2023-01-26T01:50:21.264Z,100.00
2023-01-26T01:51:31.970Z,100.00
2023-01-26T01:52:35.470Z,100.00
2023-01-26T01:53:41.258Z,100.00
2023-01-26T01:54:50.623Z,100.00
2023-01-26T01:55:55.788Z,100.00
2023-01-26T01:57:00.453Z,100.00
2023-01-26T01:58:05.631Z,100.00
2023-01-26T01:59:11.328Z,100.00
2023-01-26T02:00:15.390Z,100.00
2023-01-26T02:01:18.861Z,100.00
2023-01-26T02:02:24.786Z,100.00
2023-01-26T02:03:29.524Z,100.00
2023-01-26T02:04:32.925Z,100.00
2023-01-26T02:05:44.004Z,100.00
2023-01-26T02:06:50.163Z,100.00
2023-01-26T02:07:56.009Z,100.00
2023-01-26T02:08:59.164Z,100.00
2023-01-26T02:10:22.199Z,100.00
2023-01-26T02:11:32.069Z,100.00
2023-01-26T02:12:38.599Z,100.00
2023-01-26T02:13:43.163Z,100.00
2023-01-26T02:14:46.866Z,100.00
2023-01-26T02:15:52.304Z,100.00
2023-01-26T02:16:55.873Z,100.00
2023-01-26T02:18:02.432Z,100.00
2023-01-26T02:19:06.631Z,100.00
2023-01-26T02:20:29.905Z,100.00
2023-01-26T02:21:33.485Z,100.00
2023-01-26T02:22:46.092Z,100.00
2023-01-26T02:23:58.414Z,100.00
2023-01-26T02:25:02.927Z,100.00
2023-01-26T02:26:15.825Z,100.00
2023-01-26T02:27:19.431Z,100.00
2023-01-26T02:28:24.081Z,100.00
2023-01-26T02:29:26.474Z,100.00
2023-01-26T02:30:30.098Z,100.00
2023-01-26T02:31:34.531Z,100.00
2023-01-26T02:32:38.839Z,100.00
2023-01-26T02:33:44.118Z,100.00
2023-01-26T02:34:47.674Z,100.00
2023-01-26T02:35:50.082Z,100.00
2023-01-26T02:37:00.410Z,100.00
2023-01-26T02:38:04.081Z,100.00
2023-01-26T02:39:15.638Z,100.00
2023-01-26T02:40:23.986Z,100.00
2023-01-26T02:41:45.527Z,100.00
2023-01-26T02:42:49.027Z,100.00
2023-01-26T02:43:53.576Z,100.00
2023-01-26T02:44:57.310Z,100.00
2023-01-26T02:46:02.635Z,100.00
2023-01-26T02:47:12.936Z,100.00
2023-01-26T02:48:17.936Z,100.00
2023-01-26T02:49:41.079Z,100.00
2023-01-26T02:50:45.780Z,100.00
2023-01-26T02:51:48.607Z,100.00
2023-01-26T02:52:54.715Z,100.00
2023-01-26T02:54:01.249Z,100.00
2023-01-26T02:55:23.672Z,100.00
2023-01-26T02:56:26.656Z,100.00
2023-01-26T02:57:34.010Z,100.00
2023-01-26T02:58:38.781Z,100.00
2023-01-26T02:59:42.183Z,100.00
2023-01-26T03:00:45.838Z,100.00
2023-01-26T03:01:50.698Z,100.00
2023-01-26T03:02:55.666Z,100.00
2023-01-26T03:04:01.449Z,100.00
2023-01-26T03:05:04.394Z,100.00
2023-01-26T03:06:13.858Z,100.00
2023-01-26T03:07:17.579Z,100.00
2023-01-26T03:08:20.880Z,100.00
2023-01-26T03:09:25.082Z,100.00
2023-01-26T03:10:30.080Z,100.00
2023-01-26T03:11:35.677Z,100.00
2023-01-26T03:12:42.279Z,100.00
2023-01-26T03:13:45.372Z,100.00
2023-01-26T03:15:14.455Z,100.00
2023-01-26T03:16:20.012Z,100.00
2023-01-26T03:17:24.535Z,100.00
2023-01-26T03:18:45.787Z,100.00
2023-01-26T03:20:08.707Z,100.00
2023-01-26T03:21:32.816Z,100.00
2023-01-26T03:22:53.541Z,100.00
2023-01-26T03:24:14.413Z,100.00
2023-01-26T03:25:36.685Z,100.00
2023-01-26T03:26:58.482Z,100.00
2023-01-26T03:28:02.396Z,100.00
2023-01-26T03:29:04.863Z,100.00
2023-01-26T03:30:10.067Z,100.00
2023-01-26T03:31:13.760Z,100.00
2023-01-26T03:32:18.395Z,100.00
2023-01-26T03:33:23.879Z,100.00
2023-01-26T03:34:29.545Z,100.00
2023-01-26T03:35:35.463Z,100.00
2023-01-26T03:36:37.536Z,100.00
2023-01-26T03:37:43.781Z,100.00
2023-01-26T03:38:49.464Z,100.00
2023-01-26T03:40:15.176Z,100.00
2023-01-26T03:41:39.496Z,100.00
2023-01-26T03:43:01.396Z,100.00
2023-01-26T03:44:27.455Z,100.00
2023-01-26T03:45:49.025Z,100.00
2023-01-26T03:47:09.878Z,100.00
2023-01-26T03:48:34.903Z,100.00
2023-01-26T03:49:56.373Z,100.00
2023-01-26T03:51:18.468Z,100.00
2023-01-26T03:52:42.553Z,100.00
2023-01-26T03:54:06.001Z,100.00
2023-01-26T03:55:27.674Z,100.00
2023-01-26T03:56:34.204Z,100.00
2023-01-26T03:57:39.606Z,100.00
2023-01-26T03:58:42.914Z,100.00
2023-01-26T03:59:47.550Z,100.00
2023-01-26T04:00:52.784Z,100.00
2023-01-26T04:02:16.214Z,100.00
2023-01-26T04:03:40.263Z,100.00
2023-01-26T04:05:03.618Z,100.00
2023-01-26T04:06:29.262Z,100.00
2023-01-26T04:07:52.013Z,100.00
2023-01-26T04:08:56.252Z,100.00
2023-01-26T04:09:58.681Z,100.00
2023-01-26T04:11:05.783Z,100.00
2023-01-26T04:12:10.504Z,100.00
2023-01-26T04:13:34.153Z,100.00
2023-01-26T04:15:00.846Z,100.00
2023-01-26T04:16:24.857Z,100.00
2023-01-26T04:17:48.072Z,100.00
2023-01-26T04:19:09.221Z,100.00
2023-01-26T04:20:31.078Z,100.00
2023-01-26T04:21:34.755Z,100.00
2023-01-26T04:22:42.293Z,100.00
2023-01-26T04:23:46.700Z,100.00
2023-01-26T04:24:52.866Z,100.00
2023-01-26T04:25:59.075Z,100.00
2023-01-26T04:27:03.488Z,100.00
2023-01-26T04:28:11.740Z,100.00
2023-01-26T04:29:16.365Z,100.00
2023-01-26T04:30:19.865Z,100.00
2023-01-26T04:31:23.197Z,100.00
2023-01-26T04:32:28.727Z,100.00
2023-01-26T04:33:32.289Z,100.00
2023-01-26T04:34:36.843Z,100.00
2023-01-26T04:35:41.934Z,100.00
2023-01-26T04:36:44.487Z,100.00
2023-01-26T04:37:49.543Z,100.00
2023-01-26T04:38:53.125Z,100.00
2023-01-26T04:39:58.435Z,100.00
2023-01-26T04:41:02.696Z,100.00
2023-01-26T04:42:08.063Z,100.00
2023-01-26T04:43:11.671Z,100.00
2023-01-26T04:44:14.881Z,100.00
2023-01-26T04:45:21.135Z,100.00
2023-01-26T04:46:25.232Z,100.00
2023-01-26T04:47:30.706Z,100.00
2023-01-26T04:48:33.792Z,100.00
2023-01-26T04:49:36.672Z,100.00
2023-01-26T04:50:39.960Z,100.00
2023-01-26T04:51:42.620Z,100.00
2023-01-26T04:52:46.564Z,100.00
2023-01-26T04:53:51.539Z,100.00
2023-01-26T04:54:55.069Z,100.00
2023-01-26T04:55:58.447Z,100.00
2023-01-26T04:57:02.453Z,100.00
2023-01-26T04:58:06.610Z,100.00
2023-01-26T04:59:10.300Z,100.00
2023-01-26T05:00:15.692Z,100.00
2023-01-26T05:01:19.670Z,100.00
2023-01-26T05:02:23.105Z,100.00
2023-01-26T05:03:26.626Z,100.00
2023-01-26T05:04:32.638Z,100.00
2023-01-26T05:05:37.185Z,100.00
2023-01-26T05:06:41.620Z,100.00
2023-01-26T05:07:47.993Z,100.00
2023-01-26T05:08:52.608Z,100.00
2023-01-26T05:09:56.082Z,100.00
2023-01-26T05:11:04.526Z,100.00
2023-01-26T05:12:35.405Z,100.00
2023-01-26T05:13:58.325Z,100.00
2023-01-26T05:15:03.818Z,100.00
2023-01-26T05:16:26.356Z,100.00
2023-01-26T05:17:43.719Z,100.00
2023-01-26T05:19:04.222Z,100.00
2023-01-26T05:20:09.369Z,100.00
2023-01-26T05:21:14.718Z,100.00
2023-01-26T05:22:23.966Z,100.00
2023-01-26T05:23:45.875Z,100.00
2023-01-26T05:25:01.137Z,100.00
2023-01-26T05:26:06.861Z,100.00
2023-01-26T05:27:22.894Z,100.00
2023-01-26T05:28:26.936Z,100.00
2023-01-26T05:29:32.614Z,100.00
2023-01-26T05:30:40.495Z,100.00
2023-01-26T05:31:43.813Z,100.00
2023-01-26T05:32:47.525Z,100.00
2023-01-26T05:33:51.136Z,100.00
2023-01-26T05:34:56.744Z,100.00
2023-01-26T05:36:02.428Z,100.00
2023-01-26T05:37:06.291Z,100.00
2023-01-26T05:38:10.733Z,100.00
2023-01-26T05:39:14.615Z,100.00
2023-01-26T05:40:18.111Z,100.00
2023-01-26T05:41:25.731Z,100.00
2023-01-26T05:42:47.173Z,100.00
2023-01-26T05:43:52.209Z,100.00
2023-01-26T05:44:57.196Z,100.00
2023-01-26T05:46:01.076Z,100.00
2023-01-26T05:47:06.615Z,100.00
2023-01-26T05:48:10.010Z,100.00
2023-01-26T05:49:15.304Z,100.00
2023-01-26T05:50:20.081Z,100.00
2023-01-26T05:51:25.759Z,100.00
2023-01-26T05:52:29.166Z,100.00
2023-01-26T05:53:33.173Z,100.00
2023-01-26T05:54:36.218Z,100.00
2023-01-26T05:55:40.299Z,100.00
2023-01-26T05:56:45.061Z,100.00
2023-01-26T05:57:50.270Z,100.00
2023-01-26T05:58:54.533Z,100.00
2023-01-26T05:59:58.080Z,100.00
2023-01-26T06:01:03.568Z,100.00
2023-01-26T06:02:06.424Z,100.00
2023-01-26T06:03:11.760Z,100.00
2023-01-26T06:04:14.843Z,100.00
2023-01-26T06:05:19.987Z,100.00
2023-01-26T06:06:24.864Z,100.00
2023-01-26T06:07:31.019Z,100.00
2023-01-26T06:08:43.768Z,100.00
2023-01-26T06:09:54.994Z,100.00
2023-01-26T06:11:03.061Z,100.00
2023-01-26T06:12:16.537Z,100.00
2023-01-26T06:13:34.192Z,100.00
2023-01-26T06:14:57.098Z,100.00
2023-01-26T06:16:03.642Z,100.00
2023-01-26T06:17:07.097Z,100.00
2023-01-26T06:18:09.571Z,100.00
2023-01-26T06:19:15.173Z,100.00
2023-01-26T06:20:20.350Z,100.00
2023-01-26T06:21:31.648Z,100.00
2023-01-26T06:22:37.276Z,100.00
2023-01-26T06:23:40.988Z,100.00
2023-01-26T06:24:44.388Z,100.00
2023-01-26T06:25:47.716Z,100.00
2023-01-26T06:26:51.509Z,100.00
2023-01-26T06:27:59.887Z,100.00
2023-01-26T06:29:04.490Z,100.00
2023-01-26T06:30:11.890Z,100.00
2023-01-26T06:31:17.075Z,100.00
2023-01-26T06:32:20.712Z,100.00
2023-01-26T06:33:26.413Z,100.00
2023-01-26T06:34:31.813Z,100.00
2023-01-26T06:35:39.978Z,100.00
2023-01-26T06:36:48.332Z,100.00
2023-01-26T06:37:54.231Z,100.00
2023-01-26T06:39:00.770Z,100.00
2023-01-26T06:40:04.914Z,100.00
2023-01-26T06:41:11.969Z,100.00
2023-01-26T06:42:17.445Z,100.00
2023-01-26T06:43:21.887Z,100.00
2023-01-26T06:44:26.143Z,100.00
2023-01-26T06:45:29.629Z,100.00
2023-01-26T06:46:33.556Z,100.00
2023-01-26T06:47:37.117Z,100.00
2023-01-26T06:48:41.187Z,100.00
2023-01-26T06:49:48.835Z,100.00
2023-01-26T06:50:55.931Z,100.00
2023-01-26T06:52:00.598Z,100.00
2023-01-26T06:53:08.056Z,100.00
2023-01-26T06:54:23.302Z,100.00
2023-01-26T06:55:36.581Z,100.00
2023-01-26T06:56:58.573Z,100.00
2023-01-26T06:58:03.687Z,100.00
2023-01-26T06:59:13.309Z,100.00
2023-01-26T07:00:35.189Z,100.00
2023-01-26T07:01:53.788Z,100.00
2023-01-26T07:02:56.900Z,100.00
2023-01-26T07:03:59.283Z,100.00
2023-01-26T07:05:02.407Z,100.00
2023-01-26T07:06:05.573Z,100.00
2023-01-26T07:07:09.009Z,100.00
2023-01-26T07:08:12.365Z,100.00
2023-01-26T07:09:17.435Z,100.00
2023-01-26T07:10:20.849Z,100.00
2023-01-26T07:11:26.023Z,100.00
2023-01-26T07:12:31.198Z,100.00
2023-01-26T07:13:38.985Z,100.00
2023-01-26T07:14:42.490Z,100.00
2023-01-26T07:15:49.003Z,100.00
2023-01-26T07:16:53.257Z,100.00
2023-01-26T07:17:57.840Z,100.00
2023-01-26T07:19:01.615Z,100.00
2023-01-26T07:20:04.913Z,100.00
2023-01-26T07:21:10.935Z,100.00
2023-01-26T07:22:16.361Z,100.00
2023-01-26T07:23:20.646Z,100.00
2023-01-26T07:24:27.025Z,100.00
2023-01-26T07:25:30.699Z,100.00
2023-01-26T07:26:33.578Z,100.00
2023-01-26T07:27:39.345Z,100.00
2023-01-26T07:28:42.788Z,100.00
2023-01-26T07:29:47.229Z,100.00
2023-01-26T07:30:50.751Z,100.00
2023-01-26T07:31:54.260Z,100.00
2023-01-26T07:33:00.669Z,100.00
2023-01-26T07:34:04.067Z,100.00
2023-01-26T07:35:07.676Z,100.00
2023-01-26T07:36:11.713Z,100.00
2023-01-26T07:37:14.977Z,100.00
2023-01-26T07:38:18.389Z,100.00
2023-01-26T07:39:26.164Z,100.00
2023-01-26T07:40:29.848Z,100.00
2023-01-26T07:41:33.550Z,100.00
2023-01-26T07:42:39.941Z,100.00
2023-01-26T07:43:59.836Z,100.00
2023-01-26T07:45:03.992Z,100.00
2023-01-26T07:46:06.769Z,100.00
2023-01-26T07:47:11.040Z,100.00
2023-01-26T07:48:17.126Z,100.00
2023-01-26T07:49:20.607Z,100.00
2023-01-26T07:50:26.245Z,100.00
2023-01-26T07:51:30.737Z,100.00
2023-01-26T07:52:34.041Z,100.00
2023-01-26T07:53:40.403Z,100.00
2023-01-26T07:54:43.041Z,100.00
2023-01-26T07:55:49.268Z,100.00
2023-01-26T07:56:56.014Z,100.00
2023-01-26T07:58:01.163Z,100.00
2023-01-26T07:59:04.354Z,100.00
2023-01-26T08:00:08.388Z,100.00
2023-01-26T08:01:14.106Z,100.00
2023-01-26T08:02:17.711Z,100.00
2023-01-26T08:03:22.988Z,100.00
2023-01-26T08:04:25.493Z,100.00
2023-01-26T08:05:28.630Z,100.00
2023-01-26T08:06:32.463Z,100.00
2023-01-26T08:07:38.677Z,100.00
2023-01-26T08:08:42.084Z,100.00
2023-01-26T08:09:45.793Z,100.00
2023-01-26T08:10:49.196Z,100.00
2023-01-26T08:11:53.777Z,100.00
2023-01-26T08:13:04.485Z,100.00
2023-01-26T08:14:07.332Z,100.00
2023-01-26T08:15:11.781Z,100.00
2023-01-26T08:16:15.616Z,100.00
2023-01-26T08:17:18.583Z,100.00
2023-01-26T08:18:22.087Z,100.00
2023-01-26T08:19:24.548Z,100.00
2023-01-26T08:20:27.507Z,100.00
2023-01-26T08:21:29.991Z,100.00
2023-01-26T08:22:33.180Z,100.00
2023-01-26T08:23:36.403Z,100.00
2023-01-26T08:24:38.951Z,100.00
2023-01-26T08:25:42.203Z,100.00
2023-01-26T08:26:45.338Z,100.00
2023-01-26T08:27:48.196Z,100.00
2023-01-26T08:28:50.869Z,100.00
2023-01-26T08:29:53.113Z,100.00
2023-01-26T08:30:55.829Z,100.00
2023-01-26T08:31:59.450Z,100.00
2023-01-26T08:33:02.637Z,100.00
2023-01-26T08:34:07.251Z,100.00
2023-01-26T08:35:14.603Z,100.00
2023-01-26T08:36:22.141Z,100.00
2023-01-26T08:37:25.508Z,100.00
2023-01-26T08:38:30.130Z,100.00
2023-01-26T08:39:33.541Z,100.00
2023-01-26T08:40:38.094Z,100.00
2023-01-26T08:41:42.431Z,100.00
2023-01-26T08:42:46.041Z,100.00
2023-01-26T08:43:51.449Z,100.00
2023-01-26T08:44:54.094Z,100.00
2023-01-26T08:45:58.720Z,100.00
2023-01-26T08:47:01.827Z,100.00
2023-01-26T08:48:05.759Z,100.00
2023-01-26T08:49:09.249Z,100.00
2023-01-26T08:50:12.751Z,100.00
2023-01-26T08:51:16.269Z,100.00
2023-01-26T08:52:20.823Z,100.00
2023-01-26T08:53:24.767Z,100.00
2023-01-26T08:54:27.509Z,100.00
2023-01-26T08:55:30.973Z,100.00
2023-01-26T08:56:33.800Z,100.00
2023-01-26T08:57:37.198Z,100.00
2023-01-26T08:58:40.277Z,100.00
2023-01-26T08:59:44.630Z,100.00
2023-01-26T09:00:48.674Z,100.00
2023-01-26T09:01:53.157Z,100.00
2023-01-26T09:03:00.778Z,100.00
2023-01-26T09:04:03.449Z,100.00
2023-01-26T09:05:10.999Z,100.00
2023-01-26T09:06:14.864Z,100.00
2023-01-26T09:07:18.238Z,100.00
2023-01-26T09:08:20.922Z,100.00
2023-01-26T09:09:25.247Z,100.00
2023-01-26T09:10:29.289Z,100.00
2023-01-26T09:11:32.675Z,100.00
2023-01-26T09:12:36.087Z,100.00
2023-01-26T09:13:40.113Z,100.00
2023-01-26T09:14:43.514Z,100.00
2023-01-26T09:15:46.392Z,100.00
2023-01-26T09:16:51.530Z,100.00
2023-01-26T09:17:54.857Z,100.00
2023-01-26T09:18:58.264Z,100.00
2023-01-26T09:20:00.923Z,100.00
2023-01-26T09:21:06.429Z,100.00
2023-01-26T09:22:14.002Z,100.00
2023-01-26T09:23:19.871Z,100.00
2023-01-26T09:24:23.669Z,100.00
2023-01-26T09:25:27.236Z,100.00
2023-01-26T09:26:33.148Z,100.00
2023-01-26T09:27:36.648Z,100.00
2023-01-26T09:28:40.048Z,100.00
2023-01-26T09:29:43.353Z,100.00
2023-01-26T09:30:46.879Z,100.00
2023-01-26T09:31:49.496Z,100.00
2023-01-26T09:32:55.830Z,100.00
2023-01-26T09:33:58.891Z,100.00
2023-01-26T09:35:03.093Z,100.00
2023-01-26T09:36:07.384Z,100.00
2023-01-26T09:37:11.667Z,100.00
2023-01-26T09:38:15.916Z,100.00
2023-01-26T09:39:20.739Z,100.00
2023-01-26T09:40:29.662Z,100.00
2023-01-26T09:41:43.204Z,100.00
2023-01-26T09:42:51.937Z,100.00
2023-01-26T09:44:00.144Z,100.00
2023-01-26T09:45:05.825Z,100.00
2023-01-26T09:46:23.269Z,100.00
2023-01-26T09:47:30.217Z,100.00
2023-01-26T09:48:38.940Z,100.00
2023-01-26T09:49:48.781Z,100.00
2023-01-26T09:50:54.059Z,100.00
2023-01-26T09:52:00.608Z,100.00
2023-01-26T09:53:08.601Z,100.00
2023-01-26T09:54:23.060Z,100.00
2023-01-26T09:55:25.857Z,100.00
2023-01-26T09:56:34.048Z,100.00
2023-01-26T09:57:41.494Z,100.00
2023-01-26T09:58:47.036Z,100.00
2023-01-26T09:59:57.922Z,100.00
2023-01-26T10:01:03.260Z,100.00
2023-01-26T10:02:24.860Z,100.00
2023-01-26T10:03:32.996Z,100.00
2023-01-26T10:04:37.145Z,100.00
2023-01-26T10:05:51.488Z,100.00
2023-01-26T10:06:59.490Z,100.00
2023-01-26T10:08:23.846Z,100.00
2023-01-26T10:09:29.291Z,100.00
2023-01-26T10:10:37.399Z,100.00
2023-01-26T10:11:45.396Z,100.00
2023-01-26T10:12:51.299Z,100.00
2023-01-26T10:13:56.971Z,100.00
2023-01-26T10:15:12.670Z,100.00
2023-01-26T10:16:16.924Z,100.00
2023-01-26T10:17:25.568Z,100.00
2023-01-26T10:18:30.838Z,100.00
2023-01-26T10:19:36.350Z,100.00
2023-01-26T10:20:50.486Z,100.00
2023-01-26T10:21:55.062Z,100.00
2023-01-26T10:23:05.972Z,100.00
2023-01-26T10:24:14.144Z,100.00
2023-01-26T10:25:24.396Z,100.00
2023-01-26T10:26:29.041Z,100.00
2023-01-26T10:27:32.262Z,100.00
2023-01-26T10:28:36.256Z,97.62
2023-01-26T10:29:40.966Z,96.37
2023-01-26T10:30:46.574Z,94.32
2023-01-26T10:31:50.288Z,93.90
2023-01-26T10:32:57.562Z,93.57
2023-01-26T10:34:03.660Z,94.10
2023-01-26T10:35:07.073Z,94.64
2023-01-26T10:36:12.361Z,95.01
2023-01-26T10:37:17.769Z,95.15
2023-01-26T10:38:31.782Z,96.25
2023-01-26T10:39:35.199Z,97.06
2023-01-26T10:40:46.122Z,95.65
2023-01-26T10:41:59.965Z,100.00
2023-01-26T10:43:04.096Z,99.97
2023-01-26T10:44:18.133Z,99.46
2023-01-26T10:45:26.152Z,100.00
2023-01-26T10:46:37.213Z,98.33
2023-01-26T10:47:41.027Z,99.24
2023-01-26T10:48:45.535Z,98.99
2023-01-26T10:49:49.030Z,98.29
2023-01-26T10:50:53.401Z,98.18
2023-01-26T10:52:16.107Z,99.28
2023-01-26T10:53:20.568Z,98.77
2023-01-26T10:54:25.515Z,97.94
2023-01-26T10:55:29.857Z,97.40
2023-01-26T10:56:34.921Z,97.75
2023-01-26T10:57:42.423Z,95.86
2023-01-26T10:58:47.576Z,97.34
2023-01-26T10:59:55.257Z,94.43
2023-01-26T11:01:00.256Z,94.64
2023-01-26T11:02:06.225Z,94.74
2023-01-26T11:03:14.256Z,92.98
2023-01-26T11:04:17.846Z,95.08
2023-01-26T11:05:22.796Z,94.75
2023-01-26T11:06:27.037Z,96.47
2023-01-26T11:07:33.365Z,97.61
2023-01-26T11:08:41.473Z,96.05
2023-01-26T11:09:47.638Z,98.19
2023-01-26T11:10:54.126Z,97.61
2023-01-26T11:12:02.029Z,99.12
2023-01-26T11:13:17.660Z,99.84
2023-01-26T11:14:21.108Z,99.02
2023-01-26T11:15:26.008Z,98.89
2023-01-26T11:16:29.233Z,97.91
2023-01-26T11:17:44.189Z,96.34
2023-01-26T11:19:11.477Z,97.17
2023-01-26T11:20:20.535Z,95.04
2023-01-26T11:21:28.760Z,93.44
2023-01-26T11:22:42.282Z,95.49
2023-01-26T11:23:54.307Z,92.36
2023-01-26T11:25:02.591Z,91.75
2023-01-26T11:26:10.772Z,92.20
2023-01-26T11:27:32.902Z,90.44
2023-01-26T11:28:42.624Z,91.73
2023-01-26T11:29:48.127Z,94.51
2023-01-26T11:30:52.489Z,96.00
2023-01-26T11:32:11.956Z,96.21
2023-01-26T11:33:20.784Z,96.85
2023-01-26T11:34:27.464Z,96.19
2023-01-26T11:35:32.588Z,96.02
2023-01-26T11:36:39.660Z,96.21
2023-01-26T11:37:53.692Z,94.99
2023-01-26T11:40:14.662Z,93.76
2023-01-26T11:41:33.565Z,91.56
2023-01-26T11:42:39.784Z,91.07
2023-01-26T11:44:04.289Z,90.99
2023-01-26T11:45:25.554Z,92.00
2023-01-26T11:46:32.249Z,90.04
2023-01-26T11:47:36.444Z,91.17
2023-01-26T11:48:41.633Z,90.95
2023-01-26T11:49:53.155Z,87.56
2023-01-26T11:51:00.565Z,89.55
2023-01-26T11:52:22.095Z,91.18
2023-01-26T11:53:28.737Z,90.33
2023-01-26T11:54:37.841Z,90.79
2023-01-26T11:55:45.884Z,91.22
2023-01-26T11:56:50.636Z,91.15
2023-01-26T11:57:56.233Z,91.00
2023-01-26T11:59:01.319Z,92.74
2023-01-26T12:00:09.423Z,93.62
2023-01-26T12:01:22.610Z,93.54
2023-01-26T12:02:32.783Z,93.47
2023-01-26T12:03:37.895Z,92.19
2023-01-26T12:04:46.237Z,92.05
2023-01-26T12:07:04.172Z,90.15
2023-01-26T12:08:16.541Z,91.36
2023-01-26T12:09:24.542Z,91.68
2023-01-26T12:10:32.430Z,90.67
2023-01-26T12:11:42.724Z,89.12
2023-01-26T12:12:51.244Z,90.66
2023-01-26T12:14:14.082Z,88.48
2023-01-26T12:15:20.304Z,88.92
2023-01-26T12:16:39.020Z,89.60
2023-01-26T12:18:00.430Z,89.41
2023-01-26T12:19:11.045Z,89.13
2023-01-26T12:20:32.083Z,89.79
2023-01-26T12:21:37.194Z,89.53
2023-01-26T12:22:45.676Z,90.42
2023-01-26T12:25:19.495Z,90.54
2023-01-26T12:26:17.675Z,90.91
2023-01-26T12:27:25.792Z,91.20
2023-01-26T12:28:33.895Z,93.20
2023-01-26T12:29:38.757Z,92.23
2023-01-26T12:30:52.995Z,94.73
2023-01-26T12:31:59.576Z,93.36
2023-01-26T12:33:04.139Z,94.59
2023-01-26T12:34:08.248Z,96.12
2023-01-26T12:35:15.967Z,96.14
2023-01-26T12:36:26.981Z,95.53
2023-01-26T12:37:33.356Z,94.37
2023-01-26T12:38:56.333Z,93.81
2023-01-26T12:40:04.629Z,92.61
2023-01-26T12:41:19.736Z,93.46
2023-01-26T12:42:25.024Z,95.55
2023-01-26T12:43:31.889Z,94.22
2023-01-26T12:44:40.075Z,94.48
2023-01-26T12:45:44.389Z,97.30
2023-01-26T12:46:50.619Z,96.14
2023-01-26T12:47:57.143Z,95.79
2023-01-26T12:49:05.781Z,94.69
2023-01-26T12:50:21.395Z,95.89
2023-01-26T12:51:26.679Z,96.15
2023-01-26T12:52:48.241Z,93.80
2023-01-26T12:53:56.641Z,94.29
2023-01-26T12:55:04.886Z,94.68
2023-01-26T12:56:26.028Z,94.87
2023-01-26T12:57:31.226Z,96.47
2023-01-26T12:58:36.383Z,95.57
2023-01-26T12:59:47.841Z,96.24
2023-01-26T13:00:46.839Z,95.40
2023-01-26T13:01:51.780Z,95.26
2023-01-26T13:03:00.674Z,95.47
2023-01-26T13:04:06.022Z,94.98
2023-01-26T13:05:11.199Z,95.39
2023-01-26T13:06:16.329Z,96.39
2023-01-26T13:07:31.766Z,95.58
2023-01-26T13:08:37.825Z,95.45
2023-01-26T13:09:42.277Z,94.86
2023-01-26T13:10:48.580Z,95.10
2023-01-26T13:11:53.773Z,95.29
2023-01-26T17:59:26.195Z,100.00
2023-01-26T18:00:28.653Z,100.00
2023-01-26T18:01:31.229Z,100.00
2023-01-26T18:02:34.108Z,100.00
2023-01-26T18:03:40.753Z,100.00
2023-01-26T18:04:44.252Z,100.00
2023-01-26T18:05:52.452Z,100.00
2023-01-26T18:06:56.065Z,100.00
2023-01-26T18:08:04.044Z,100.00
2023-01-26T18:09:07.880Z,100.00
2023-01-26T18:10:12.115Z,100.00
2023-01-26T18:11:14.890Z,100.00
2023-01-26T18:12:18.279Z,100.00
2023-01-26T18:13:23.516Z,100.00
2023-01-26T18:14:27.083Z,100.00
2023-01-26T18:15:30.687Z,100.00
2023-01-26T18:16:33.564Z,100.00
2023-01-26T18:17:38.741Z,100.00
2023-01-26T18:18:41.311Z,100.00
2023-01-26T18:19:45.559Z,100.00
2023-01-26T18:20:48.866Z,100.00
2023-01-26T18:21:51.942Z,100.00
2023-01-26T18:22:57.199Z,100.00
2023-01-26T18:24:07.539Z,100.00
2023-01-26T18:25:10.864Z,100.00
2023-01-26T18:26:14.317Z,100.00
2023-01-26T18:27:17.486Z,100.00
2023-01-26T18:28:20.893Z,100.00
2023-01-26T18:29:25.217Z,100.00
2023-01-26T18:30:29.834Z,100.00
2023-01-26T18:31:38.107Z,100.00
2023-01-26T18:32:41.376Z,100.00
2023-01-26T18:33:44.573Z,100.00
2023-01-26T18:34:47.912Z,100.00
2023-01-26T18:35:50.223Z,100.00
2023-01-26T18:36:53.943Z,100.00
2023-01-26T18:37:57.161Z,100.00
2023-01-26T18:39:01.837Z,100.00
2023-01-26T18:40:08.320Z,100.00
2023-01-26T18:41:12.667Z,100.00
2023-01-26T18:42:16.173Z,100.00
2023-01-26T18:43:21.234Z,100.00
2023-01-26T18:44:28.365Z,100.00
2023-01-26T18:45:31.489Z,100.00
2023-01-26T18:46:35.002Z,100.00
2023-01-26T18:47:37.351Z,100.00
2023-01-26T18:48:42.309Z,100.00
2023-01-26T18:49:45.934Z,100.00
2023-01-26T18:50:50.997Z,100.00